createdAt,value
2024-02-20T00:07:55.887Z,98.75
2024-02-20T00:17:57.492Z,99.09
2024-02-20T00:27:59.057Z,100.00
2024-02-20T00:38:00.666Z,100.00
2024-02-20T00:48:02.241Z,100.00
2024-02-20T00:58:04.007Z,100.00
2024-02-20T01:08:05.625Z,100.00
2024-02-20T01:18:07.282Z,100.00
2024-02-20T01:28:08.938Z,100.00
2024-02-20T01:38:10.456Z,100.00
2024-02-20T01:48:12.009Z,100.00
2024-02-20T01:58:13.651Z,100.00
2024-02-20T02:08:15.312Z,100.00
2024-02-20T02:18:16.759Z,100.00
2024-02-20T02:28:18.432Z,100.00
2024-02-20T02:38:20.063Z,100.00
2024-02-20T02:48:21.519Z,100.00
2024-02-20T02:58:23.172Z,100.00
2024-02-20T03:08:25.002Z,100.00
2024-02-20T03:18:26.460Z,100.00
2024-02-20T03:28:28.222Z,99.50
2024-02-20T03:38:29.742Z,99.88
2024-02-20T03:48:31.351Z,100.00
2024-02-20T03:58:33.092Z,100.00
2024-02-20T04:08:34.785Z,100.00
2024-02-20T04:18:36.313Z,99.99
2024-02-20T04:28:40.151Z,100.00
2024-02-20T04:38:41.785Z,100.00
2024-02-20T04:48:43.258Z,100.00
2024-02-20T04:58:44.867Z,100.00
2024-02-20T05:08:46.411Z,100.00
2024-02-20T05:18:47.909Z,100.00
2024-02-20T05:28:49.920Z,100.00
2024-02-20T05:38:52.041Z,100.00
2024-02-20T05:48:55.910Z,100.00
2024-02-20T05:58:58.050Z,100.00
2024-02-20T06:08:59.685Z,100.00
2024-02-20T06:19:01.400Z,93.72
2024-02-20T06:29:03.132Z,88.97
2024-02-20T06:39:05.352Z,85.75
2024-02-20T06:49:06.946Z,86.56
2024-02-20T06:59:09.598Z,84.35
2024-02-20T07:09:11.220Z,81.55
2024-02-20T07:19:12.798Z,84.27
2024-02-20T07:29:14.427Z,82.52
2024-02-20T07:39:15.893Z,82.39
2024-02-20T07:49:17.784Z,81.91
2024-02-20T07:59:19.803Z,78.71
2024-02-20T08:09:21.248Z,76.78
2024-02-20T08:19:22.815Z,75.31
2024-02-20T08:29:26.516Z,74.37
2024-02-20T08:39:28.244Z,74.21
2024-02-20T08:49:32.235Z,76.61
2024-02-20T08:59:34.439Z,76.50
2024-02-20T09:09:36.078Z,77.32
2024-02-20T09:19:37.623Z,76.63
2024-02-20T09:29:39.255Z,76.65
2024-02-20T09:39:40.744Z,75.45
2024-02-20T09:49:42.251Z,71.84
2024-02-20T09:59:43.902Z,70.09
2024-02-20T10:09:45.891Z,70.23
2024-02-20T10:19:47.446Z,72.02
2024-02-20T10:29:49.041Z,73.81
2024-02-20T10:39:50.674Z,74.40
2024-02-20T10:49:52.230Z,72.21
2024-02-20T10:59:53.989Z,70.25
2024-02-20T11:09:55.772Z,71.38
2024-02-20T11:19:57.357Z,69.42
2024-02-20T11:29:58.877Z,66.81
2024-02-20T11:40:00.725Z,67.96
2024-02-20T11:50:02.678Z,68.76
2024-02-20T12:00:06.345Z,67.25
2024-02-20T12:10:12.806Z,67.40
2024-02-20T12:20:15.007Z,64.52
2024-02-20T12:30:16.499Z,64.12
2024-02-20T12:40:18.501Z,61.47
2024-02-20T12:50:20.208Z,58.11
2024-02-20T13:00:21.736Z,57.93
2024-02-20T13:10:23.594Z,60.37
2024-02-20T13:20:25.080Z,60.34
2024-02-20T13:30:26.715Z,60.60
2024-02-20T13:40:29.217Z,60.87
2024-02-20T13:50:30.774Z,60.34
2024-02-20T14:00:32.525Z,65.36
2024-02-20T14:10:34.550Z,64.20
2024-02-20T14:20:36.787Z,65.38
2024-02-20T14:30:45.095Z,67.74
2024-02-20T14:40:51.897Z,69.84
2024-02-20T14:50:53.431Z,74.28
2024-02-20T15:00:55.377Z,77.07
2024-02-20T15:10:57.467Z,77.67
2024-02-20T15:20:59.284Z,78.07
2024-02-20T15:31:00.806Z,78.44
2024-02-20T15:41:02.785Z,79.88
2024-02-20T15:51:04.371Z,78.67
2024-02-20T16:01:06.415Z,84.79
2024-02-20T16:11:09.334Z,85.73
2024-02-20T16:21:11.055Z,85.18
2024-02-20T16:31:12.986Z,85.53
2024-02-20T16:41:14.794Z,86.29
2024-02-20T16:51:21.845Z,86.09
2024-02-20T17:01:23.679Z,92.77
2024-02-20T17:11:25.574Z,100.00
2024-02-20T17:21:27.042Z,100.00
2024-02-20T17:31:28.530Z,100.00
2024-02-20T17:41:30.842Z,100.00
2024-02-20T17:51:35.069Z,100.00
2024-02-20T18:01:36.643Z,100.00
2024-02-20T18:11:38.414Z,100.00
2024-02-20T18:21:41.474Z,100.00
2024-02-20T18:31:43.844Z,97.95
2024-02-20T18:41:51.077Z,95.67
2024-02-20T18:51:52.618Z,96.06
2024-02-20T19:01:56.818Z,93.07
2024-02-20T19:11:59.287Z,91.90
2024-02-20T19:22:00.805Z,91.32
2024-02-20T19:32:02.874Z,88.72
2024-02-20T19:42:04.647Z,87.26
2024-02-20T19:52:06.314Z,86.06
2024-02-20T20:02:08.019Z,86.42
2024-02-20T20:12:11.740Z,88.54
2024-02-20T20:22:13.375Z,92.60
2024-02-20T20:32:17.676Z,100.00
2024-02-20T20:42:19.710Z,100.00
2024-02-20T20:52:21.227Z,100.00
2024-02-20T21:02:22.901Z,100.00
2024-02-20T21:12:25.948Z,100.00
2024-02-20T21:22:27.399Z,100.00
2024-02-20T21:32:28.971Z,100.00
2024-02-20T21:42:30.975Z,100.00
2024-02-20T21:52:32.831Z,100.00
2024-02-20T22:02:34.587Z,100.00
2024-02-20T22:12:36.299Z,100.00
2024-02-20T22:22:37.871Z,100.00
2024-02-20T22:32:39.434Z,100.00
2024-02-20T22:42:41.486Z,100.00
2024-02-20T22:52:43.318Z,100.00
2024-02-20T23:02:45.149Z,100.00
2024-02-20T23:12:46.775Z,100.00
2024-02-20T23:22:48.292Z,100.00
2024-02-20T23:32:50.117Z,100.00
2024-02-20T23:42:51.701Z,100.00
2024-02-20T23:52:54.396Z,100.00
